Time;durP1;ratioP1;P1;durP2;ratioP2;P2;SDS_P1;SDS_P2;PMS_P1;PMS_P2;Temp;Humidity;BMP_temperature;BMP_pressure;BME280_temperature;BME280_humidity;BME280_pressure;Samples;Min_cycle;Max_cycle;Signal;HPM_P1;HPM_P2
2022/05/30 00:01:33;;;;;;;9.60;6.20;;;6.30;99.90;;;;;;5134117;28;20062;-69
2022/05/30 00:04:06;;;;;;;8.43;6.68;;;6.30;99.90;;;;;;5132727;28;20043;-69
2022/05/30 00:06:39;;;;;;;7.95;5.82;;;6.30;99.90;;;;;;5129131;28;20058;-70
2022/05/30 00:09:13;;;;;;;8.30;5.50;;;6.20;99.90;;;;;;5130527;28;20069;-70
2022/05/30 00:11:48;;;;;;;6.97;5.25;;;6.20;99.90;;;;;;5125357;28;21075;-70
2022/05/30 00:14:20;;;;;;;5.38;4.32;;;6.10;99.90;;;;;;5125763;28;20505;-70
2022/05/30 00:16:52;;;;;;;8.13;6.28;;;6.10;99.90;;;;;;5162980;28;20038;-70
2022/05/30 00:19:25;;;;;;;7.05;5.80;;;6.10;99.90;;;;;;5131583;28;20046;-70
2022/05/30 00:21:57;;;;;;;8.05;5.43;;;6.00;99.90;;;;;;5133858;28;20043;-71
2022/05/30 00:24:31;;;;;;;8.48;6.18;;;6.10;99.90;;;;;;5128567;28;20074;-69
2022/05/30 00:27:04;;;;;;;5.60;4.63;;;6.10;99.90;;;;;;5129803;28;21483;-70
2022/05/30 00:29:38;;;;;;;11.40;6.13;;;6.00;99.90;;;;;;5126342;28;20062;-70
2022/05/30 00:32:11;;;;;;;6.57;5.20;;;6.00;99.90;;;;;;5124852;28;20062;-70
2022/05/30 00:34:44;;;;;;;6.25;5.18;;;6.00;99.90;;;;;;5150063;28;20047;-70
2022/05/30 00:37:16;;;;;;;7.05;5.00;;;6.00;99.90;;;;;;5135592;28;20069;-69
2022/05/30 00:39:49;;;;;;;7.03;5.50;;;6.00;99.90;;;;;;5128825;28;20042;-71
2022/05/30 00:42:24;;;;;;;8.32;6.60;;;6.00;99.90;;;;;;5131018;28;20058;-70
2022/05/30 00:44:57;;;;;;;7.43;6.00;;;5.90;99.90;;;;;;5126607;28;20517;-69
2022/05/30 00:47:29;;;;;;;7.13;5.97;;;5.80;99.90;;;;;;5139767;28;20928;-69
2022/05/30 00:50:02;;;;;;;12.02;5.75;;;5.80;99.90;;;;;;5133186;28;20057;-70
2022/05/30 00:52:39;;;;;;;8.80;4.43;;;5.80;99.90;;;;;;5133039;28;20065;-70
2022/05/30 00:55:15;;;;;;;6.93;5.32;;;5.80;99.90;;;;;;5127029;28;20058;-70
2022/05/30 00:57:48;;;;;;;5.80;4.80;;;5.80;99.90;;;;;;5128839;28;20046;-70
2022/05/30 01:00:25;;;;;;;6.07;5.22;;;5.80;99.90;;;;;;5124834;28;20042;-70
2022/05/30 01:08:42;;;;;;;6.63;5.22;;;5.70;99.90;;;;;;5124893;28;20058;-69
2022/05/30 01:11:14;;;;;;;6.25;5.00;;;5.60;99.90;;;;;;5130897;28;20055;-70
2022/05/30 01:13:47;;;;;;;12.02;8.60;;;5.50;99.90;;;;;;5129800;28;20051;-70
2022/05/30 01:16:20;;;;;;;17.63;12.02;;;5.50;99.90;;;;;;5122566;28;20050;-70
2022/05/30 01:19:01;;;;;;;9.20;7.13;;;5.50;99.90;;;;;;5153433;28;20502;-70
2022/05/30 01:21:51;;;;;;;7.93;4.78;;;5.40;99.90;;;;;;5126674;28;21625;-70
2022/05/30 01:24:43;;;;;;;7.00;5.93;;;5.50;99.90;;;;;;5146335;28;20053;-70
2022/05/30 01:27:43;;;;;;;8.93;5.93;;;5.50;99.90;;;;;;5126523;28;20042;-70
2022/05/30 01:30:16;;;;;;;6.03;4.70;;;5.40;99.90;;;;;;5130549;28;21686;-70
2022/05/30 01:32:49;;;;;;;8.10;5.60;;;5.40;99.90;;;;;;5127585;28;20061;-71
2022/05/30 01:35:24;;;;;;;5.93;4.78;;;5.40;99.90;;;;;;5135522;28;21620;-70
2022/05/30 01:37:57;;;;;;;5.80;4.68;;;5.40;99.90;;;;;;5118301;28;20462;-69
2022/05/30 01:40:30;;;;;;;9.80;4.68;;;5.40;99.90;;;;;;5136496;28;20039;-69
2022/05/30 01:43:03;;;;;;;7.28;4.57;;;5.50;99.90;;;;;;5138349;28;20042;-70
2022/05/30 01:45:36;;;;;;;5.95;4.90;;;5.50;99.90;;;;;;5107703;28;20438;-69
2022/05/30 01:48:09;;;;;;;5.68;4.28;;;5.50;99.90;;;;;;5140316;28;20060;-70
2022/05/30 01:50:41;;;;;;;5.13;4.18;;;5.40;99.90;;;;;;5128060;28;20046;-70
2022/05/30 01:53:40;;;;;;;5.32;4.05;;;5.30;99.90;;;;;;5129530;28;20050;-70
2022/05/30 01:56:38;;;;;;;5.00;3.63;;;5.30;99.90;;;;;;5129773;28;20046;-69
2022/05/30 01:59:11;;;;;;;7.95;4.22;;;5.30;99.90;;;;;;5132498;28;20077;-70
2022/05/30 02:01:45;;;;;;;5.32;4.15;;;5.30;99.90;;;;;;5120475;28;20030;-70
2022/05/30 02:04:20;;;;;;;4.65;4.07;;;5.20;99.90;;;;;;5136559;28;20069;-69
2022/05/30 02:06:53;;;;;;;4.97;3.75;;;5.10;99.90;;;;;;5127984;28;20050;-71
2022/05/30 02:09:26;;;;;;;5.07;4.07;;;5.10;99.90;;;;;;5102419;28;20050;-70
2022/05/30 02:11:59;;;;;;;6.55;4.13;;;5.10;99.90;;;;;;5136485;28;20514;-69
2022/05/30 02:14:47;;;;;;;5.68;4.22;;;5.00;99.90;;;;;;5125893;28;20172;-69
2022/05/30 02:17:19;;;;;;;9.57;5.03;;;5.00;99.90;;;;;;5128755;28;20073;-69
2022/05/30 02:19:52;;;;;;;14.18;9.88;;;5.00;99.90;;;;;;5130642;28;20058;-68
2022/05/30 02:22:29;;;;;;;9.82;7.57;;;4.90;99.90;;;;;;5132151;28;20041;-69
2022/05/30 02:25:02;;;;;;;9.93;7.82;;;4.90;99.90;;;;;;5134407;28;20050;-69
2022/05/30 02:27:36;;;;;;;12.18;8.30;;;5.00;99.90;;;;;;5125278;28;20053;-69
2022/05/30 02:30:09;;;;;;;12.70;7.87;;;5.00;99.90;;;;;;5129465;28;20057;-69
2022/05/30 02:32:42;;;;;;;7.15;5.05;;;5.00;99.90;;;;;;5119642;28;20998;-69
2022/05/30 02:38:07;;;;;;;5.65;4.15;;;5.10;99.90;;;;;;5138666;28;20042;-68
2022/05/30 02:40:58;;;;;;;4.82;4.00;;;5.10;99.90;;;;;;5144707;28;21159;-69
2022/05/30 02:43:54;;;;;;;6.88;4.35;;;5.20;99.90;;;;;;5105867;28;20378;-69
2022/05/30 02:46:27;;;;;;;6.45;4.07;;;5.20;99.90;;;;;;5146245;28;20470;-68
2022/05/30 02:49:00;;;;;;;5.63;5.05;;;5.30;99.90;;;;;;5133255;28;20065;-69
2022/05/30 02:51:32;;;;;;;4.90;3.95;;;5.30;99.90;;;;;;5122390;28;20394;-71
2022/05/30 02:54:06;;;;;;;5.07;4.32;;;5.40;99.90;;;;;;5139561;28;20043;-70
2022/05/30 02:56:41;;;;;;;7.32;4.25;;;5.40;99.90;;;;;;5127611;28;20065;-69
2022/05/30 02:59:14;;;;;;;9.82;4.95;;;5.30;99.90;;;;;;5120058;28;20050;-70
2022/05/30 03:01:53;;;;;;;4.28;3.85;;;5.30;99.90;;;;;;5133617;28;20514;-69
2022/05/30 03:04:26;;;;;;;5.50;4.20;;;5.30;99.90;;;;;;5117976;28;20823;-70
2022/05/30 03:06:58;;;;;;;5.30;4.18;;;5.30;99.90;;;;;;5130111;28;20046;-68
2022/05/30 03:09:31;;;;;;;4.35;3.95;;;5.30;99.90;;;;;;5128944;28;20047;-69
2022/05/30 03:12:10;;;;;;;6.82;4.78;;;5.30;99.90;;;;;;5133124;28;20650;-69
2022/05/30 03:14:42;;;;;;;5.85;4.70;;;5.30;99.90;;;;;;5123685;28;20061;-69
2022/05/30 03:17:16;;;;;;;5.72;4.80;;;5.20;99.90;;;;;;5135058;28;20148;-69
2022/05/30 03:19:53;;;;;;;5.97;4.45;;;5.10;99.90;;;;;;5137253;28;20047;-69
2022/05/30 03:22:26;;;;;;;6.22;4.38;;;5.10;99.90;;;;;;5121333;28;20091;-69
2022/05/30 03:25:18;;;;;;;5.07;4.15;;;5.10;99.90;;;;;;5129758;28;20043;-69
2022/05/30 03:27:56;;;;;;;5.22;4.53;;;5.10;99.90;;;;;;5150657;28;20418;-69
2022/05/30 03:30:28;;;;;;;5.20;4.10;;;5.10;99.90;;;;;;5123737;28;20050;-71
2022/05/30 03:33:06;;;;;;;5.45;3.88;;;5.20;99.90;;;;;;5134682;28;20921;-70
2022/05/30 03:35:39;;;;;;;7.82;5.65;;;5.30;99.90;;;;;;5135240;28;20336;-70
2022/05/30 03:38:44;;;;;;;5.68;3.95;;;5.30;99.90;;;;;;5134106;28;20081;-71
2022/05/30 03:41:35;;;;;;;4.55;4.10;;;5.20;99.90;;;;;;5126088;28;20397;-67
2022/05/30 03:44:13;;;;;;;4.85;4.30;;;5.30;99.90;;;;;;5130167;28;20546;-70
2022/05/30 03:46:45;;;;;;;4.57;4.07;;;5.20;99.90;;;;;;5131893;28;20517;-69
2022/05/30 03:49:18;;;;;;;4.82;4.15;;;5.20;99.90;;;;;;5131965;28;20077;-69
2022/05/30 03:51:51;;;;;;;4.93;4.03;;;5.20;99.90;;;;;;5129429;28;20043;-69
2022/05/30 03:54:23;;;;;;;8.50;4.05;;;5.30;99.90;;;;;;5121095;28;20042;-69
2022/05/30 03:56:57;;;;;;;7.60;3.85;;;5.30;99.90;;;;;;5146900;28;20046;-70
2022/05/30 03:59:31;;;;;;;5.03;3.63;;;5.40;99.90;;;;;;5122515;28;20050;-70
2022/05/30 04:02:06;;;;;;;4.75;3.67;;;5.40;99.90;;;;;;5128319;28;20046;-68
2022/05/30 04:04:38;;;;;;;5.00;4.15;;;5.50;99.90;;;;;;5123546;28;20450;-69
2022/05/30 04:07:11;;;;;;;7.65;4.80;;;5.50;99.90;;;;;;5128389;28;20046;-69
2022/05/30 04:10:04;;;;;;;3.80;3.40;;;5.50;99.90;;;;;;5131424;28;20517;-69
2022/05/30 04:13:01;;;;;;;4.10;3.70;;;5.50;99.90;;;;;;5128740;28;20061;-69
2022/05/30 04:16:11;;;;;;;6.30;3.80;;;5.40;99.90;;;;;;5120064;28;20050;-69
2022/05/30 04:18:44;;;;;;;4.25;3.85;;;5.40;99.90;;;;;;5140828;28;20053;-69
2022/05/30 04:21:17;;;;;;;7.50;4.20;;;5.40;99.90;;;;;;5126044;28;20050;-70
2022/05/30 04:23:49;;;;;;;10.27;4.07;;;5.40;99.90;;;;;;5126493;28;20042;-69
2022/05/30 04:26:26;;;;;;;6.78;4.55;;;5.50;99.90;;;;;;5141692;28;20305;-69
2022/05/30 04:28:58;;;;;;;5.43;4.03;;;5.40;99.90;;;;;;5120115;28;20070;-69
2022/05/30 04:31:42;;;;;;;4.43;4.00;;;5.50;99.90;;;;;;5124914;28;20797;-69
2022/05/30 04:34:17;;;;;;;4.63;4.18;;;5.60;99.90;;;;;;5127106;28;20050;-69
2022/05/30 04:36:50;;;;;;;4.83;4.00;;;5.80;99.90;;;;;;5139968;28;20047;-69
2022/05/30 04:39:23;;;;;;;4.82;4.32;;;5.90;99.90;;;;;;5131299;28;20845;-70
2022/05/30 04:42:01;;;;;;;5.03;3.35;;;5.90;99.90;;;;;;5130266;28;20089;-69
2022/05/30 04:44:37;;;;;;;4.57;4.10;;;6.00;99.90;;;;;;5142746;28;20046;-69
2022/05/30 04:47:11;;;;;;;4.43;3.78;;;6.10;99.90;;;;;;5118591;28;20054;-68
2022/05/30 04:49:49;;;;;;;5.13;4.63;;;6.10;99.90;;;;;;5106087;28;21322;-70
2022/05/30 04:52:23;;;;;;;4.35;3.83;;;6.20;99.90;;;;;;5150948;28;20058;-69
2022/05/30 04:54:57;;;;;;;5.25;4.20;;;6.20;99.90;;;;;;5129294;28;20295;-69
2022/05/30 04:57:44;;;;;;;5.88;4.07;;;6.30;99.90;;;;;;5106883;28;20693;-69
2022/05/30 05:00:33;;;;;;;4.78;3.92;;;6.30;99.90;;;;;;5120407;28;20054;-68
2022/05/30 05:03:06;;;;;;;9.40;4.68;;;6.50;99.90;;;;;;5105105;28;20050;-69
2022/05/30 05:05:39;;;;;;;4.83;4.33;;;6.60;99.90;;;;;;5114327;28;20046;-68
2022/05/30 05:08:53;;;;;;;4.63;3.70;;;6.70;99.90;;;;;;5117472;28;20077;-68
2022/05/30 05:11:52;;;;;;;5.10;4.03;;;6.80;99.90;;;;;;5097271;28;20073;-68
2022/05/30 05:14:59;;;;;;;6.22;4.30;;;6.90;99.90;;;;;;5085837;28;20449;-68
2022/05/30 05:17:51;;;;;;;4.82;4.10;;;7.00;99.90;;;;;;5106130;28;20058;-70
2022/05/30 05:20:24;;;;;;;7.00;4.03;;;7.10;99.90;;;;;;5113265;28;20963;-69
2022/05/30 05:22:56;;;;;;;5.13;3.88;;;7.20;99.90;;;;;;5129021;28;20313;-68
2022/05/30 05:25:49;;;;;;;5.20;3.88;;;7.40;99.90;;;;;;5135964;28;20047;-68
2022/05/30 05:28:36;;;;;;;5.63;4.32;;;7.40;99.90;;;;;;5120900;28;20055;-69
2022/05/30 05:31:14;;;;;;;5.10;4.32;;;7.60;99.90;;;;;;5104675;28;20986;-71
2022/05/30 05:33:46;;;;;;;5.05;4.03;;;7.60;99.90;;;;;;5126725;28;20059;-69
2022/05/30 05:36:25;;;;;;;5.03;4.15;;;7.70;99.90;;;;;;5114244;28;20069;-70
2022/05/30 05:38:58;;;;;;;4.90;4.40;;;7.70;99.90;;;;;;5092850;28;20063;-69
2022/05/30 05:41:46;;;;;;;4.68;4.22;;;7.90;99.90;;;;;;5125505;28;20462;-69
2022/05/30 05:44:20;;;;;;;6.05;4.82;;;8.00;99.90;;;;;;5145043;28;20399;-69
2022/05/30 05:46:57;;;;;;;6.38;5.47;;;8.10;99.90;;;;;;5133409;28;20686;-69
2022/05/30 05:49:31;;;;;;;6.57;5.65;;;8.20;99.90;;;;;;5148494;28;20917;-69
2022/05/30 05:52:04;;;;;;;8.85;6.20;;;8.20;99.90;;;;;;5136505;28;20050;-69
2022/05/30 05:54:37;;;;;;;9.23;7.67;;;8.40;99.90;;;;;;5151210;28;20522;-68
2022/05/30 05:57:12;;;;;;;12.70;8.40;;;8.50;99.90;;;;;;5130535;28;20058;-69
2022/05/30 05:59:49;;;;;;;12.98;10.15;;;8.70;99.90;;;;;;5147831;28;20054;-69
2022/05/30 06:02:23;;;;;;;13.20;10.32;;;8.70;99.90;;;;;;5125798;28;20042;-69
2022/05/30 06:04:57;;;;;;;15.55;10.60;;;8.70;99.90;;;;;;5139114;28;20043;-69
2022/05/30 06:07:48;;;;;;;16.42;11.00;;;8.70;99.90;;;;;;5137058;28;20046;-69
2022/05/30 06:11:05;;;;;;;15.05;10.30;;;8.80;99.90;;;;;;5137363;28;20047;-69
2022/05/30 06:13:33;;;;;;;16.25;10.88;;;9.00;99.90;;;;;;5167394;28;20739;-69
2022/05/30 06:16:11;;;;;;;14.83;10.63;;;9.20;99.90;;;;;;5166510;28;20050;-69
2022/05/30 06:18:59;;;;;;;13.50;10.75;;;9.30;99.90;;;;;;5141668;28;20772;-69
2022/05/30 06:21:33;;;;;;;14.63;11.30;;;9.40;99.90;;;;;;5119947;28;20046;-70
2022/05/30 06:24:08;;;;;;;16.08;11.50;;;9.50;99.90;;;;;;5133788;28;20521;-69
2022/05/30 06:27:01;;;;;;;12.87;10.63;;;9.60;99.90;;;;;;5135322;28;20047;-69
2022/05/30 06:29:40;;;;;;;18.27;10.85;;;9.70;99.90;;;;;;5148991;28;20297;-69
2022/05/30 06:32:15;;;;;;;17.52;12.30;;;9.80;99.90;;;;;;5151599;28;20061;-70
2022/05/30 06:35:01;;;;;;;15.88;11.77;;;9.80;99.90;;;;;;5138587;28;20057;-69
2022/05/30 06:37:35;;;;;;;;;;;10.00;99.90;;;;;;5129971;28;20058;-70
2022/05/30 06:40:08;;;;;;;15.55;10.38;;;10.00;99.90;;;;;;5133138;28;20521;-69
2022/05/30 06:42:50;;;;;;;15.80;11.88;;;10.10;99.90;;;;;;5189223;28;20055;-69
2022/05/30 06:45:34;;;;;;;14.48;10.52;;;10.10;99.90;;;;;;5128908;28;20046;-69
2022/05/30 06:48:26;;;;;;;14.10;9.15;;;10.20;99.90;;;;;;5119158;28;20043;-69
2022/05/30 06:51:24;;;;;;;12.32;8.57;;;10.30;99.90;;;;;;5164693;28;20058;-69
2022/05/30 06:53:57;;;;;;;13.05;8.65;;;10.40;99.90;;;;;;5212958;28;20047;-69
2022/05/30 06:56:33;;;;;;;13.82;8.95;;;10.50;99.90;;;;;;5132405;28;20050;-69
2022/05/30 06:59:05;;;;;;;11.75;9.73;;;10.70;99.90;;;;;;5140641;28;20480;-70
2022/05/30 07:01:39;;;;;;;10.90;8.80;;;10.70;99.90;;;;;;5137993;28;20061;-71
2022/05/30 07:04:35;;;;;;;12.43;10.07;;;10.70;99.90;;;;;;5164970;28;20062;-70
2022/05/30 07:07:27;;;;;;;12.25;8.98;;;10.80;99.90;;;;;;5120069;28;21043;-69
2022/05/30 07:10:14;;;;;;;12.95;8.55;;;10.90;99.90;;;;;;5126694;28;20484;-69
2022/05/30 07:12:55;;;;;;;10.30;6.35;;;11.00;99.90;;;;;;5145885;28;20050;-70
2022/05/30 07:15:30;;;;;;;9.85;5.80;;;11.20;99.90;;;;;;5134526;28;20065;-69
2022/05/30 07:18:14;;;;;;;8.80;5.70;;;11.20;99.90;;;;;;5125562;28;20406;-69
2022/05/30 07:20:54;;;;;;;7.28;4.95;;;11.30;99.90;;;;;;5145259;28;20053;-70
2022/05/30 07:23:34;;;;;;;5.75;4.88;;;11.40;99.90;;;;;;5134692;28;20057;-69
2022/05/30 07:26:25;;;;;;;11.00;4.20;;;11.60;99.90;;;;;;5133817;28;20077;-70
2022/05/30 07:29:33;;;;;;;5.35;4.13;;;11.80;99.90;;;;;;5136184;28;20038;-70
2022/05/30 07:32:24;;;;;;;5.15;4.38;;;11.70;99.90;;;;;;5139749;28;20112;-69
2022/05/30 07:35:16;;;;;;;5.00;4.32;;;11.60;99.90;;;;;;5162204;28;20061;-70
2022/05/30 07:38:27;;;;;;;5.28;4.57;;;11.70;99.90;;;;;;5119682;28;20484;-70
2022/05/30 07:41:31;;;;;;;5.03;4.15;;;11.80;99.90;;;;;;5195977;28;20046;-71
2022/05/30 07:44:13;;;;;;;5.93;4.20;;;12.00;99.90;;;;;;5137672;28;20042;-70
2022/05/30 07:46:54;;;;;;;4.97;3.72;;;12.20;99.90;;;;;;5137673;28;20052;-70
2022/05/30 07:49:44;;;;;;;6.43;4.82;;;12.30;99.90;;;;;;5228003;28;20039;-70
2022/05/30 07:52:40;;;;;;;7.35;3.13;;;12.20;99.90;;;;;;5140503;28;20086;-70
2022/05/30 07:55:29;;;;;;;4.75;3.20;;;12.50;99.90;;;;;;5161731;28;20050;-70
2022/05/30 07:58:05;;;;;;;3.72;2.30;;;12.80;99.90;;;;;;5116707;28;20060;-70
2022/05/30 08:00:38;;;;;;;4.88;2.67;;;13.00;95.60;;;;;;5136631;28;20047;-70
2022/05/30 08:03:19;;;;;;;4.70;2.88;;;12.90;92.70;;;;;;5129664;28;20053;-70
2022/05/30 08:06:09;;;;;;;5.32;3.40;;;13.00;94.20;;;;;;5132410;28;20046;-70
2022/05/30 08:09:01;;;;;;;3.83;3.38;;;13.00;93.30;;;;;;5131319;28;20050;-70
2022/05/30 08:11:33;;;;;;;4.78;2.88;;;13.00;93.50;;;;;;5144241;28;20051;-70
2022/05/30 08:14:15;;;;;;;3.67;3.08;;;13.10;93.10;;;;;;5130395;28;20043;-71
2022/05/30 08:16:48;;;;;;;5.15;3.35;;;13.20;91.80;;;;;;5135960;28;20057;-70
2022/05/30 08:19:23;;;;;;;5.57;2.85;;;13.20;92.90;;;;;;5149162;28;20050;-71
2022/05/30 08:22:18;;;;;;;5.13;2.28;;;13.30;92.70;;;;;;5131338;28;20053;-71
2022/05/30 08:24:53;;;;;;;;;;;13.40;91.90;;;;;;5223461;28;20069;-70
2022/05/30 08:27:29;;;;;;;4.88;2.70;;;13.50;92.00;;;;;;5138007;28;19926;-70
2022/05/30 08:30:06;;;;;;;3.00;2.38;;;13.50;89.80;;;;;;5138185;28;20043;-71
2022/05/30 08:32:43;;;;;;;3.50;2.60;;;13.50;90.40;;;;;;5125570;28;20045;-70
2022/05/30 08:35:34;;;;;;;7.57;2.60;;;13.70;90.40;;;;;;5126541;28;20046;-71
2022/05/30 08:38:07;;;;;;;2.75;2.55;;;13.70;88.60;;;;;;5134958;28;20042;-70
2022/05/30 08:43:42;;;;;;;3.63;2.60;;;13.80;85.50;;;;;;5133720;28;20065;-71
2022/05/30 08:46:40;;;;;;;4.20;2.75;;;13.70;85.40;;;;;;5129031;28;20061;-70
2022/05/30 08:49:22;;;;;;;3.25;2.67;;;13.80;86.70;;;;;;5135200;28;20050;-70
2022/05/30 08:51:57;;;;;;;;;;;13.90;88.30;;;;;;5140132;28;20043;-70
2022/05/30 08:55:07;;;;;;;4.15;2.53;;;14.00;85.20;;;;;;5135929;28;19933;-70
2022/05/30 08:57:53;;;;;;;4.47;3.53;;;14.00;85.60;;;;;;5134316;28;20057;-70
2022/05/30 09:00:35;;;;;;;6.53;3.42;;;14.10;87.00;;;;;;5131466;28;20418;-71
2022/05/30 09:03:43;;;;;;;3.53;2.75;;;14.10;89.40;;;;;;5129221;28;20058;-70
2022/05/30 09:06:22;;;;;;;4.50;3.28;;;14.30;86.60;;;;;;5141272;28;20042;-70
2022/05/30 09:09:09;;;;;;;3.47;3.10;;;14.30;82.30;;;;;;5128591;28;20530;-70
2022/05/30 09:12:11;;;;;;;4.93;3.60;;;14.20;82.30;;;;;;5137306;28;20518;-70
2022/05/30 09:15:00;;;;;;;4.35;3.67;;;14.40;84.30;;;;;;5138943;28;20050;-70
2022/05/30 09:17:45;;;;;;;4.35;3.58;;;14.50;86.80;;;;;;5140277;28;20096;-70
2022/05/30 09:20:21;;;;;;;7.18;3.50;;;14.50;85.00;;;;;;5139862;28;20051;-70
2022/05/30 09:22:54;;;;;;;5.97;3.28;;;14.50;86.00;;;;;;5152178;28;20046;-70
2022/05/30 09:29:06;;;;;;;4.88;2.90;;;14.70;86.40;;;;;;5127643;28;20050;-70
2022/05/30 09:32:06;;;;;;;2.72;2.42;;;14.60;85.10;;;;;;5142793;28;20046;-70
2022/05/30 09:35:27;;;;;;;4.72;3.00;;;14.60;85.60;;;;;;5131926;28;20054;-70
2022/05/30 09:38:22;;;;;;;2.85;2.33;;;14.70;83.90;;;;;;5139254;28;20810;-70
2022/05/30 09:41:06;;;;;;;3.58;2.97;;;14.70;85.10;;;;;;5136475;28;20119;-70
2022/05/30 09:44:03;;;;;;;3.88;2.60;;;14.70;83.30;;;;;;5134999;28;20038;-70
2022/05/30 09:46:42;;;;;;;4.55;3.03;;;14.50;83.40;;;;;;5114976;28;20058;-70
2022/05/30 09:49:36;;;;;;;3.45;3.15;;;14.50;82.60;;;;;;5131045;28;20129;-71
2022/05/30 09:52:37;;;;;;;5.18;3.08;;;14.50;80.40;;;;;;5147611;28;20046;-70
2022/05/30 09:55:34;;;;;;;3.33;3.00;;;14.60;81.70;;;;;;5143511;28;20046;-71
2022/05/30 09:58:13;;;;;;;4.38;3.22;;;14.90;78.70;;;;;;5135595;28;20047;-70
2022/05/30 10:01:07;;;;;;;;;;;15.30;77.90;;;;;;5141108;28;20054;-70
2022/05/30 10:03:42;;;;;;;5.53;2.70;;;15.60;74.70;;;;;;5136671;28;20781;-70
2022/05/30 10:06:39;;;;;;;6.03;2.42;;;15.60;75.10;;;;;;5145026;28;20506;-70
2022/05/30 10:09:39;;;;;;;11.85;6.95;;;15.50;74.10;;;;;;5125445;28;20034;-70
2022/05/30 10:12:34;;;;;;;3.78;2.92;;;15.40;74.40;;;;;;5133430;28;20045;-70
2022/05/30 10:15:32;;;;;;;2.83;2.25;;;15.50;72.90;;;;;;5130559;28;20067;-70
2022/05/30 10:18:16;;;;;;;5.75;2.83;;;15.80;75.00;;;;;;5107550;28;20055;-70
2022/05/30 10:21:17;;;;;;;2.75;2.38;;;16.30;72.70;;;;;;5130768;28;20904;-70
2022/05/30 10:28:28;;;;;;;4.60;2.10;;;17.10;68.50;;;;;;5126702;28;20054;-71
2022/05/30 10:31:36;;;;;;;3.67;2.13;;;17.00;69.80;;;;;;5125786;28;20042;-70
2022/05/30 10:34:37;;;;;;;4.72;2.60;;;17.40;68.40;;;;;;5130752;28;20656;-71
2022/05/30 10:37:33;;;;;;;4.20;2.42;;;17.80;67.60;;;;;;5144327;28;20050;-69
2022/05/30 10:40:31;;;;;;;3.25;2.10;;;18.10;66.00;;;;;;5151187;28;22450;-70
2022/05/30 10:43:26;;;;;;;3.15;2.30;;;18.30;67.80;;;;;;5148279;28;20077;-70
2022/05/30 10:46:02;;;;;;;4.72;2.30;;;18.60;66.80;;;;;;5144124;28;20927;-70
2022/05/30 10:48:39;;;;;;;5.70;2.28;;;18.40;63.80;;;;;;5147306;28;20912;-70
2022/05/30 10:51:17;;;;;;;5.30;2.30;;;18.10;64.70;;;;;;5134516;28;20054;-69
2022/05/30 10:54:23;;;;;;;6.13;2.17;;;17.80;65.10;;;;;;5155097;28;20050;-70
2022/05/30 10:57:30;;;;;;;3.15;1.90;;;17.80;66.00;;;;;;5122155;28;20410;-70
2022/05/30 11:00:09;;;;;;;3.28;2.03;;;17.60;64.50;;;;;;5133672;28;20488;-71
2022/05/30 11:03:10;;;;;;;4.70;2.65;;;17.40;67.00;;;;;;5136799;28;20707;-70
2022/05/30 11:05:49;;;;;;;2.08;1.85;;;17.20;66.10;;;;;;5139089;28;20053;-71
2022/05/30 11:08:56;;;;;;;3.80;2.13;;;17.10;66.10;;;;;;5126339;28;20051;-70
2022/05/30 11:11:39;;;;;;;3.65;2.00;;;17.00;65.40;;;;;;5147092;28;20042;-70
2022/05/30 11:15:01;;;;;;;3.85;2.55;;;16.90;67.00;;;;;;5134214;28;20077;-70
2022/05/30 11:18:23;;;;;;;3.95;2.17;;;16.80;68.70;;;;;;5131609;28;20057;-71
2022/05/30 11:21:36;;;;;;;3.97;2.30;;;16.70;67.90;;;;;;5108911;28;20054;-70
2022/05/30 11:24:10;;;;;;;3.58;2.15;;;17.70;66.80;;;;;;5136246;28;20043;-70
2022/05/30 11:27:05;;;;;;;3.72;2.15;;;18.60;67.20;;;;;;5131281;28;20054;-70
2022/05/30 11:29:49;;;;;;;2.20;1.80;;;18.90;60.20;;;;;;5131897;28;20577;-70
2022/05/30 11:32:49;;;;;;;4.20;2.00;;;19.40;59.30;;;;;;5131938;28;20042;-70
2022/05/30 11:35:33;;;;;;;5.00;3.10;;;19.70;58.50;;;;;;5133795;28;20069;-70
2022/05/30 11:38:39;;;;;;;4.55;2.53;;;19.80;58.10;;;;;;5133206;28;20651;-69
2022/05/30 11:41:43;;;;;;;3.47;2.40;;;20.20;61.20;;;;;;5128234;28;21466;-70
2022/05/30 11:44:25;;;;;;;5.55;2.50;;;20.90;57.90;;;;;;5151278;28;20046;-70
2022/05/30 11:47:17;;;;;;;7.35;2.40;;;20.40;57.80;;;;;;5110454;28;20046;-70
2022/05/30 11:50:08;;;;;;;3.03;2.22;;;20.10;57.50;;;;;;5124958;28;21254;-69
2022/05/30 11:53:32;;;;;;;5.45;2.28;;;19.70;58.30;;;;;;5124884;28;20054;-70
2022/05/30 11:56:16;;;;;;;3.53;2.55;;;19.30;58.90;;;;;;5084866;28;20312;-70
2022/05/30 11:58:56;;;;;;;3.95;2.10;;;19.20;59.30;;;;;;5114887;28;20043;-70
2022/05/30 12:01:30;;;;;;;3.25;2.13;;;18.90;59.90;;;;;;5114394;28;20055;-70
2022/05/30 12:04:52;;;;;;;3.65;2.47;;;18.70;59.00;;;;;;5119395;28;20536;-71
2022/05/30 12:07:40;;;;;;;2.38;1.73;;;18.60;58.10;;;;;;5124318;28;20516;-70
2022/05/30 12:10:42;;;;;;;2.38;1.90;;;19.30;60.40;;;;;;5118694;28;21296;-70
2022/05/30 12:13:24;;;;;;;3.10;2.33;;;19.80;57.40;;;;;;5209671;28;20050;-70
2022/05/30 12:16:34;;;;;;;4.03;1.65;;;20.10;57.10;;;;;;5119177;28;20124;-70
2022/05/30 12:25:35;;;;;;;5.53;2.50;;;19.10;58.10;;;;;;5147587;28;20057;-70
2022/05/30 12:28:27;;;;;;;3.70;2.38;;;19.50;58.80;;;;;;5147359;28;20918;-71
2022/05/30 12:31:03;;;;;;;4.03;3.13;;;19.30;57.80;;;;;;5125836;28;20046;-70
2022/05/30 12:33:47;;;;;;;3.75;2.60;;;19.30;58.00;;;;;;5136007;28;20184;-71
2022/05/30 12:36:19;;;;;;;;;;;19.30;58.80;;;;;;5130095;28;20147;-70
2022/05/30 12:38:54;;;;;;;2.28;2.08;;;19.10;59.30;;;;;;5110334;28;20302;-70
2022/05/30 12:41:29;;;;;;;;;;;18.90;59.20;;;;;;5124866;28;20093;-70
2022/05/30 12:44:02;;;;;;;6.60;3.10;;;18.80;58.40;;;;;;5121195;28;19926;-70
2022/05/30 12:46:52;;;;;;;5.15;2.95;;;18.30;59.00;;;;;;5122282;28;20060;-70
2022/05/30 12:49:31;;;;;;;7.30;2.95;;;18.20;59.40;;;;;;5119007;28;20053;-69
2022/05/30 12:52:21;;;;;;;3.60;2.00;;;17.90;59.50;;;;;;5117472;28;20074;-70
2022/05/30 12:55:12;;;;;;;3.10;2.53;;;17.90;61.10;;;;;;5121832;28;20054;-71
2022/05/30 12:57:45;;;;;;;2.22;2.00;;;18.00;61.30;;;;;;5119650;28;20062;-70
2022/05/30 13:00:20;;;;;;;5.57;2.57;;;18.00;61.40;;;;;;5116660;28;20051;-70
2022/05/30 13:02:52;;;;;;;4.75;2.72;;;17.90;62.60;;;;;;5112550;28;20051;-69
2022/05/30 13:05:44;;;;;;;3.65;2.30;;;18.30;63.10;;;;;;5131592;28;20057;-69
2022/05/30 13:08:54;;;;;;;4.03;3.13;;;18.50;59.30;;;;;;5133223;28;20047;-70
2022/05/30 13:11:33;;;;;;;4.55;2.45;;;18.10;59.00;;;;;;5138250;28;20058;-69
2022/05/30 13:14:28;;;;;;;3.78;2.35;;;18.10;60.40;;;;;;5132293;28;20910;-70
2022/05/30 13:17:18;;;;;;;4.97;2.88;;;18.70;59.00;;;;;;5122786;28;20938;-71
2022/05/30 13:19:55;;;;;;;4.57;2.55;;;18.80;57.70;;;;;;5115015;28;20054;-71
2022/05/30 15:18:05;;;;;;;4.00;2.40;;;19.00;57.40;;;;;;5200507;28;20455;-70
2022/05/30 15:20:38;;;;;;;4.50;2.78;;;19.40;57.80;;;;;;5204058;28;20045;-70
2022/05/30 15:23:10;;;;;;;6.20;2.45;;;19.20;58.80;;;;;;5215351;28;20064;-71
2022/05/30 15:25:44;;;;;;;2.78;1.95;;;18.90;58.70;;;;;;5181367;28;20051;-71
2022/05/30 15:28:16;;;;;;;;;;;18.70;58.70;;;;;;5214015;28;20043;-71
2022/05/30 15:30:50;;;;;;;8.98;6.03;;;18.40;57.40;;;;;;5221255;28;19924;-70
2022/05/30 15:33:23;;;;;;;6.30;3.63;;;18.10;58.40;;;;;;5189964;28;20036;-70
2022/05/30 15:35:56;;;;;;;9.52;3.33;;;17.90;60.40;;;;;;5217903;28;20063;-72
2022/05/30 15:38:29;;;;;;;3.72;2.10;;;17.70;61.00;;;;;;5216166;28;20195;-70
2022/05/30 15:41:04;;;;;;;4.30;1.80;;;17.70;60.40;;;;;;5221878;28;20056;-71
2022/05/30 15:43:37;;;;;;;5.10;2.33;;;17.70;61.10;;;;;;5213139;28;20087;-70
2022/05/30 15:46:12;;;;;;;4.20;2.28;;;17.70;60.00;;;;;;5225185;28;20302;-71
2022/05/30 15:48:46;;;;;;;5.22;2.60;;;17.70;61.00;;;;;;5221022;28;20032;-71
2022/05/30 15:51:25;;;;;;;5.72;2.40;;;17.60;60.10;;;;;;5234377;28;20056;-70
2022/05/30 15:59:53;;;;;;;5.97;2.33;;;17.60;60.80;;;;;;5237724;28;20056;-71
2022/05/30 16:02:25;;;;;;;3.50;2.35;;;18.10;60.30;;;;;;5206859;28;20435;-71
2022/05/30 16:04:59;;;;;;;10.20;2.70;;;19.00;57.50;;;;;;5223012;28;20060;-71
2022/05/30 16:07:32;;;;;;;5.28;2.60;;;19.40;55.80;;;;;;5215800;28;20534;-72
2022/05/30 16:10:06;;;;;;;;;;;20.00;54.80;;;;;;5230967;28;20051;-71
2022/05/30 16:12:42;;;;;;;3.72;2.78;;;20.40;51.80;;;;;;5228889;28;19924;-71
2022/05/30 16:15:16;;;;;;;5.93;3.00;;;20.90;51.40;;;;;;5218321;28;20056;-70
2022/05/30 16:17:49;;;;;;;2.95;2.05;;;21.30;51.60;;;;;;5199907;28;20053;-70
2022/05/30 16:20:21;;;;;;;3.22;2.20;;;21.70;49.90;;;;;;5227300;28;20048;-70
2022/05/30 16:22:56;;;;;;;4.18;2.80;;;21.50;50.40;;;;;;5229361;28;20044;-70
2022/05/30 16:25:28;;;;;;;4.55;2.72;;;21.10;51.50;;;;;;5234094;28;20054;-70
2022/05/30 16:28:03;;;;;;;4.55;2.50;;;20.70;51.80;;;;;;5237036;28;20649;-70
2022/05/30 16:30:36;;;;;;;5.72;2.58;;;20.20;53.50;;;;;;5217094;28;20055;-70
2022/05/30 16:33:09;;;;;;;4.57;2.57;;;19.80;53.20;;;;;;5220951;28;20048;-71
2022/05/30 16:35:41;;;;;;;6.30;2.57;;;19.50;52.80;;;;;;5224236;28;20048;-70
2022/05/30 16:38:16;;;;;;;4.30;2.40;;;19.20;53.50;;;;;;5223208;28;25943;-70